Terminal Aerodrome Forecast
Issued by NWS Jackson, KY

Home | Current Version | Previous Version | Text Only | Print | Product List | Glossary On
Versions: 1 2 3 4 5 6 7 8 9 10 11 12 13 14 15 16 17 18 19 20 21 22 23 24
000
FTUS43 KJKL 191100
TAFJKL
TAF
KJKL 191123Z 1912/2012 00000KT 3/4SM BR FEW002 OVC040
     FM191300 VRB03KT 2SM BR OVC010
     FM191500 VRB03KT P6SM BKN025
     FM191700 VRB06KT P6SM VCTS BKN050CB
     FM200100 00000KT 5SM BR SCT050
     FM200800 00000KT 1/2SM FG VV002=

USA.gov is the U.S. government's official web portal to all federal, state and local government web resources and services.